Impacts METAR Board INFO
IDs:

KSAN - San Diego Intl Arpt, CA, US

Updated at: 2332 UTC 17 Dec 2017
Potential Impact None Slight Moderate High
Time17/11Z 17/12Z 17/13Z 17/14Z 17/15Z 17/16Z 17/17Z 17/18Z 17/19Z 17/20Z 17/21Z 17/22Z 17/23Z
VIS9 10 9 10 10 10 8 10 8 10 10 10 10
CIG-- -- -- -- -- -- -- -- -- -- -- -- --
CoverSCTSCTSCTSCTSCTSCTSCTFEWCLRCLRCLRCLRCLR
FltCatVFRVFRVFRVFRVFRVFRVFRVFRVFRVFRVFRVFRVFR
WX--------------------------
WDir0034000600002502300300
WSpd0 0 3 0 0 3 0 0 0 4 7 5 6
WGst-- -- -- -- -- -- -- -- -- -- -- -- --
Raw hourly METARs
KSAN 171051Z 00000KT 9SM SCT110 11/09 A2980 RMK AO2 SLP090 T01110089
KSAN 171151Z 00000KT 10SM SCT110 12/08 A2980 RMK AO2 SLP089 T01170083 10144 20111 50002
KSAN 171251Z 34003KT 9SM SCT110 11/08 A2983 RMK AO2 SLP099 T01060078
KSAN 171351Z 00000KT 10SM SCT110 11/07 A2984 RMK AO2 SLP104 T01060072
KSAN 171451Z 00000KT 10SM SCT100 11/07 A2986 RMK AO2 SLP112 T01060067 51022
KSAN 171551Z 06003KT 10SM SCT100 12/07 A2988 RMK AO2 SLP117 T01220067
KSAN 171651Z 00000KT 8SM SCT100 14/08 A2990 RMK AO2 SLP125 T01440083
KSAN 171751Z 00000KT 10SM FEW100 15/08 A2992 RMK AO2 SLP132 T01500078 10156 20100 53020
KSAN 171851Z 00000KT 8SM CLR 18/08 A2992 RMK AO2 SLP130 T01830083
KSAN 171951Z 25004KT 10SM CLR 20/01 A2990 RMK AO2 SLP123 T02000011
KSAN 172051Z 23007KT 10SM CLR 22/00 A2989 RMK AO2 SLP120 T02170000 58011
KSAN 172151Z VRB05KT 10SM CLR 20/06 A2990 RMK AO2 SLP124 T02000056
KSAN 172251Z 30006KT 10SM CLR 20/03 A2992 RMK AO2 SLP130 T02000033